CheckWX is a tool to help pilots better visualize weather data.  It is not intended as a substitute for an official pre-flight weather briefing.

05:22:17 UTC

EGNX METAR
East Midlands Airport
Nottingham, United Kingdom
Current

32 mins ago

EGNX 200450Z 20012KT CAVOK 07/05 Q1014
Observed
Feb-20 @ 04:50 UTC
Wind
  • 200° at 12 KTS
Visibility
10,000+ meters
Flight Rules
VFR
Cloud Levels
  • Clear skies
Temperature
C / 45°F
Dewpoint
C / 41°F
Humidity
87%
Altimeter
29.94" Hg
Pressure
1013.92 hPa
Previous

1 hour ago

EGNX 200420Z 20012KT CAVOK 07/05 Q1014
Observed
Feb-20 @ 04:20 UTC
Wind
  • 200° at 12 KTS
Visibility
10,000+ meters
Flight Rules
VFR
Cloud Levels
  • Clear skies
Temperature
C / 45°F
Dewpoint
C / 41°F
Humidity
87%
Altimeter
29.94" Hg
Pressure
1013.92 hPa
Previous

2 hours ago

EGNX 200350Z 21013KT CAVOK 07/06 Q1014
Observed
Feb-20 @ 03:50 UTC
Wind
  • 210° at 13 KTS
Visibility
10,000+ meters
Flight Rules
VFR
Cloud Levels
  • Clear skies
Temperature
C / 45°F
Dewpoint
C / 43°F
Humidity
93%
Altimeter
29.94" Hg
Pressure
1013.92 hPa